Time;durP1;ratioP1;P1;durP2;ratioP2;P2;SDS_P1;SDS_P2;PMS_P1;PMS_P2;Temp;Humidity;BMP_temperature;BMP_pressure;BME280_temperature;BME280_humidity;BME280_pressure;Samples;Min_cycle;Max_cycle;Signal;HPM_P1;HPM_P2
2021/07/11 00:01:19;;;;;;;11.55;7.63;;;;;;;;;;5034874;28;20065;-66
2021/07/11 00:03:46;;;;;;;13.75;7.40;;;;;;;;;;5034496;28;20099;-67
2021/07/11 00:06:12;;;;;;;9.90;7.50;;;;;;;;;;5033159;28;20159;-66
2021/07/11 00:08:39;;;;;;;10.27;7.50;;;;;;;;;;5033192;28;20028;-67
2021/07/11 00:11:05;;;;;;;9.20;7.63;;;;;;;;;;5034378;28;20057;-65
2021/07/11 00:13:31;;;;;;;13.65;8.02;;;;;;;;;;5034402;28;20485;-66
2021/07/11 00:15:58;;;;;;;13.32;7.80;;;;;;;;;;5033075;28;20030;-67
2021/07/11 00:18:24;;;;;;;14.20;7.90;;;;;;;;;;5032989;28;20108;-67
2021/07/11 00:20:50;;;;;;;13.13;8.55;;;;;;;;;;5034487;28;20035;-67
2021/07/11 00:23:16;;;;;;;11.70;8.32;;;;;;;;;;5034132;28;20033;-66
2021/07/11 00:25:42;;;;;;;10.45;7.00;;;;;;;;;;5033958;28;20144;-65
2021/07/11 00:28:09;;;;;;;13.52;8.13;;;;;;;;;;5034092;28;20390;-66
2021/07/11 00:30:35;;;;;;;11.02;7.07;;;;;;;;;;5034134;28;20033;-66
2021/07/11 00:33:01;;;;;;;10.27;7.85;;;;;;;;;;5033989;28;20083;-64
2021/07/11 00:35:27;;;;;;;12.80;6.97;;;;;;;;;;5034290;28;20018;-64
2021/07/11 00:37:54;;;;;;;11.35;8.75;;;;;;;;;;5033982;28;20104;-64
2021/07/11 00:40:20;;;;;;;10.88;8.10;;;;;;;;;;5033855;28;20065;-68
2021/07/11 00:42:46;;;;;;;8.80;7.93;;;;;;;;;;5032557;28;20017;-68
2021/07/11 00:45:14;;;;;;;13.25;7.68;;;;;;;;;;5033838;28;20477;-68
2021/07/11 00:47:40;;;;;;;13.20;8.27;;;;;;;;;;5032054;28;20050;-68
2021/07/11 00:50:07;;;;;;;13.77;8.27;;;;;;;;;;5033634;28;20124;-66
2021/07/11 00:52:33;;;;;;;12.52;8.52;;;;;;;;;;5032412;28;20112;-66
2021/07/11 00:55:00;;;;;;;13.55;7.90;;;;;;;;;;5033724;28;20014;-66
2021/07/11 00:57:26;;;;;;;9.57;7.63;;;;;;;;;;5033294;28;20113;-67
2021/07/11 00:59:52;;;;;;;11.68;8.05;;;;;;;;;;5033617;28;20100;-67
2021/07/11 01:02:24;;;;;;;10.00;8.98;;;;;;;;;;5033216;28;20385;-67
2021/07/11 01:05:03;;;;;;;10.15;7.70;;;;;;;;;;5033834;28;20047;-67
2021/07/11 01:07:43;;;;;;;9.13;8.23;;;;;;;;;;5033464;28;20022;-68
2021/07/11 01:10:13;;;;;;;11.18;8.00;;;;;;;;;;5033397;28;20117;-65
2021/07/11 01:12:44;;;;;;;13.40;8.27;;;;;;;;;;5033430;28;20021;-66
2021/07/11 01:15:10;;;;;;;9.45;8.25;;;;;;;;;;5033410;28;20103;-66
2021/07/11 01:17:37;;;;;;;9.68;8.30;;;;;;;;;;5031184;28;20068;-65
2021/07/11 01:20:22;;;;;;;11.73;7.85;;;;;;;;;;5033207;28;20561;-66
2021/07/11 01:22:52;;;;;;;11.65;8.95;;;;;;;;;;5032954;28;20433;-64
2021/07/11 01:25:29;;;;;;;13.27;8.73;;;;;;;;;;5032963;28;20108;-66
2021/07/11 01:27:56;;;;;;;9.35;8.43;;;;;;;;;;5031906;28;20522;-66
2021/07/11 01:30:22;;;;;;;9.70;8.15;;;;;;;;;;5033207;28;20120;-65
2021/07/11 01:32:48;;;;;;;9.68;8.52;;;;;;;;;;5033152;28;20401;-67
2021/07/11 01:35:15;;;;;;;14.68;8.50;;;;;;;;;;5033099;28;20049;-65
2021/07/11 01:37:42;;;;;;;11.77;7.85;;;;;;;;;;5033085;28;20022;-67
2021/07/11 01:40:09;;;;;;;13.55;8.30;;;;;;;;;;5033001;28;20103;-66
2021/07/11 01:42:36;;;;;;;9.55;8.23;;;;;;;;;;5032998;28;20025;-67
2021/07/11 01:45:04;;;;;;;12.90;9.07;;;;;;;;;;5031773;28;20112;-66
2021/07/11 01:47:31;;;;;;;11.00;8.95;;;;;;;;;;5032414;28;20049;-66
2021/07/11 01:49:57;;;;;;;20.17;9.30;;;;;;;;;;5032871;28;20474;-65
2021/07/11 01:52:24;;;;;;;16.15;10.10;;;;;;;;;;5032828;28;20026;-67
2021/07/11 01:54:52;;;;;;;14.35;9.23;;;;;;;;;;5032642;28;20160;-68
2021/07/11 01:57:18;;;;;;;12.90;10.20;;;;;;;;;;5032902;28;20065;-66
2021/07/11 01:59:44;;;;;;;11.63;10.43;;;;;;;;;;5031264;28;20120;-67
2021/07/11 02:02:11;;;;;;;16.15;10.85;;;;;;;;;;5031522;28;20505;-65
2021/07/11 02:04:37;;;;;;;11.52;10.27;;;;;;;;;;5032762;28;20030;-66
2021/07/11 02:07:03;;;;;;;16.52;10.52;;;;;;;;;;5032851;28;20033;-67
2021/07/11 02:09:29;;;;;;;13.65;11.40;;;;;;;;;;5032673;28;20072;-65
2021/07/11 02:12:00;;;;;;;14.23;9.52;;;;;;;;;;5032750;28;20545;-65
2021/07/11 02:14:30;;;;;;;12.52;10.10;;;;;;;;;;5032276;28;20104;-65
2021/07/11 02:17:16;;;;;;;13.73;10.60;;;;;;;;;;5033041;28;20026;-65
2021/07/11 02:19:43;;;;;;;10.10;9.10;;;;;;;;;;5032214;28;20446;-66
2021/07/11 02:22:10;;;;;;;12.25;10.25;;;;;;;;;;5031385;28;20029;-69
2021/07/11 02:24:40;;;;;;;14.57;10.75;;;;;;;;;;5031329;28;20029;-68
2021/07/11 02:27:08;;;;;;;12.05;10.90;;;;;;;;;;5032907;28;20087;-68
2021/07/11 02:29:39;;;;;;;12.60;10.63;;;;;;;;;;5034384;28;20483;-67
2021/07/11 02:32:08;;;;;;;15.93;9.90;;;;;;;;;;5036738;28;20107;-67
2021/07/11 02:34:34;;;;;;;19.65;10.70;;;;;;;;;;5036327;28;20048;-67
2021/07/11 02:37:02;;;;;;;10.77;9.77;;;;;;;;;;5035014;28;20044;-65
2021/07/11 02:39:28;;;;;;;11.38;10.25;;;;;;;;;;5036239;28;20148;-67
2021/07/11 02:41:58;;;;;;;12.15;10.27;;;;;;;;;;5036052;28;20053;-66
2021/07/11 02:44:25;;;;;;;12.40;9.88;;;;;;;;;;5034784;28;20036;-65
2021/07/11 02:46:59;;;;;;;11.13;9.95;;;;;;;;;;5035772;28;20512;-67
2021/07/11 02:49:27;;;;;;;16.90;12.07;;;;;;;;;;5036001;28;20037;-64
2021/07/11 02:51:54;;;;;;;16.00;11.02;;;;;;;;;;5034709;28;20026;-66
2021/07/11 02:54:23;;;;;;;20.08;11.45;;;;;;;;;;5035956;28;20056;-65
2021/07/11 02:56:52;;;;;;;12.88;9.65;;;;;;;;;;5035679;28;20101;-66
2021/07/11 02:59:19;;;;;;;13.35;9.75;;;;;;;;;;5035824;28;20417;-66
2021/07/11 03:01:45;;;;;;;12.02;9.50;;;;;;;;;;5035567;28;20021;-64
2021/07/11 03:04:13;;;;;;;11.80;10.68;;;;;;;;;;5035726;28;20017;-66
2021/07/11 03:06:39;;;;;;;12.70;10.60;;;;;;;;;;5035839;28;20026;-67
2021/07/11 03:09:06;;;;;;;15.50;10.48;;;;;;;;;;5035693;28;20028;-66
2021/07/11 03:11:36;;;;;;;11.38;9.55;;;;;;;;;;5035265;28;20418;-66
2021/07/11 03:14:04;;;;;;;14.80;10.93;;;;;;;;;;5034260;28;20025;-65
2021/07/11 03:16:31;;;;;;;18.33;9.95;;;;;;;;;;5035576;28;20112;-65
2021/07/11 03:18:58;;;;;;;12.52;9.50;;;;;;;;;;5035529;28;20079;-65
2021/07/11 03:21:25;;;;;;;13.32;9.20;;;;;;;;;;5034132;28;20121;-66
2021/07/11 03:23:53;;;;;;;12.43;9.73;;;;;;;;;;5035126;28;20104;-67
2021/07/11 03:26:20;;;;;;;10.90;9.90;;;;;;;;;;5035448;28;20025;-65
2021/07/11 03:28:49;;;;;;;12.60;10.45;;;;;;;;;;5035342;28;20021;-66
2021/07/11 03:31:16;;;;;;;12.15;9.45;;;;;;;;;;5033839;28;20037;-65
2021/07/11 03:33:45;;;;;;;12.20;10.90;;;;;;;;;;5033919;28;20021;-64
2021/07/11 03:36:13;;;;;;;13.38;10.02;;;;;;;;;;5035217;28;20087;-64
2021/07/11 03:38:44;;;;;;;12.90;10.35;;;;;;;;;;5035105;28;20105;-67
2021/07/11 03:41:13;;;;;;;10.80;9.70;;;;;;;;;;5034940;28;20108;-65
2021/07/11 03:43:41;;;;;;;14.90;9.52;;;;;;;;;;5034742;28;20033;-63
2021/07/11 03:46:08;;;;;;;15.13;11.27;;;;;;;;;;5034741;28;20137;-64
2021/07/11 03:48:43;;;;;;;14.43;12.35;;;;;;;;;;5033686;28;20515;-66
2021/07/11 03:51:10;;;;;;;16.50;13.15;;;;;;;;;;5034924;28;20037;-66
2021/07/11 03:53:37;;;;;;;14.38;11.20;;;;;;;;;;5034846;28;20165;-68
2021/07/11 03:56:04;;;;;;;20.98;13.40;;;;;;;;;;5035091;28;20053;-65
2021/07/11 03:58:31;;;;;;;18.88;13.00;;;;;;;;;;5033396;28;20132;-66
2021/07/11 04:00:58;;;;;;;16.25;11.40;;;;;;;;;;5034491;28;20393;-67
2021/07/11 04:03:26;;;;;;;18.85;11.27;;;;;;;;;;5033401;28;20071;-65
2021/07/11 04:05:52;;;;;;;16.00;11.00;;;;;;;;;;5034600;28;20021;-67
2021/07/11 04:08:20;;;;;;;16.27;14.52;;;;;;;;;;5034643;28;20561;-65
2021/07/11 04:10:47;;;;;;;16.98;12.75;;;;;;;;;;5034411;28;20381;-65
2021/07/11 04:13:14;;;;;;;13.77;10.27;;;;;;;;;;5034674;28;20049;-65
2021/07/11 04:15:40;;;;;;;18.08;15.00;;;;;;;;;;5034367;28;20029;-66
2021/07/11 04:18:08;;;;;;;14.20;10.52;;;;;;;;;;5034400;28;20032;-67
2021/07/11 04:20:35;;;;;;;16.58;12.90;;;;;;;;;;5034326;28;20099;-65
2021/07/11 04:23:03;;;;;;;12.07;10.88;;;;;;;;;;5034289;28;20128;-67
2021/07/11 04:25:31;;;;;;;14.07;12.25;;;;;;;;;;5034280;28;20091;-67
2021/07/11 04:27:59;;;;;;;16.73;11.82;;;;;;;;;;5034082;28;20108;-65
2021/07/11 04:30:25;;;;;;;17.08;12.82;;;;;;;;;;5032686;28;20038;-67
2021/07/11 04:32:51;;;;;;;15.63;11.27;;;;;;;;;;5034048;28;20365;-68
2021/07/11 04:35:18;;;;;;;12.70;11.40;;;;;;;;;;5032653;28;20049;-66
2021/07/11 04:37:44;;;;;;;12.70;9.93;;;;;;;;;;5034309;28;20061;-66
2021/07/11 04:40:11;;;;;;;12.18;10.55;;;;;;;;;;5033890;28;20029;-66
2021/07/11 04:42:37;;;;;;;17.15;13.52;;;;;;;;;;5034083;28;20077;-68
2021/07/11 04:45:04;;;;;;;16.88;14.02;;;;;;;;;;5033796;28;20064;-64
2021/07/11 04:47:30;;;;;;;19.58;14.85;;;;;;;;;;5032108;28;20141;-67
2021/07/11 04:49:56;;;;;;;14.60;12.50;;;;;;;;;;5033573;28;20544;-64
2021/07/11 04:52:23;;;;;;;14.98;12.38;;;;;;;;;;5032909;28;20064;-64
2021/07/11 04:54:49;;;;;;;25.50;16.75;;;;;;;;;;5033672;28;20025;-65
2021/07/11 04:57:15;;;;;;;20.77;16.73;;;;;;;;;;5039434;28;20033;-67
2021/07/11 04:59:42;;;;;;;24.38;17.67;;;;;;;;;;5041899;28;20196;-65
2021/07/11 05:02:08;;;;;;;22.02;17.13;;;;;;;;;;5033524;28;20097;-65
2021/07/11 05:04:34;;;;;;;21.23;15.00;;;;;;;;;;5032007;28;20029;-64
2021/07/11 05:07:01;;;;;;;22.00;16.42;;;;;;;;;;5033514;28;20032;-66
2021/07/11 05:09:27;;;;;;;20.65;15.82;;;;;;;;;;5033327;28;20104;-65
2021/07/11 05:11:53;;;;;;;17.42;15.55;;;;;;;;;;5031809;28;20373;-66
2021/07/11 05:14:19;;;;;;;19.20;14.48;;;;;;;;;;5033578;28;20084;-66
2021/07/11 05:16:45;;;;;;;19.95;15.23;;;;;;;;;;5033359;28;20032;-65
2021/07/11 05:19:12;;;;;;;17.20;15.40;;;;;;;;;;5033066;28;20375;-66
2021/07/11 05:21:38;;;;;;;18.17;14.23;;;;;;;;;;5033265;28;20022;-64
2021/07/11 05:24:04;;;;;;;20.10;15.18;;;;;;;;;;5032997;28;20211;-67
2021/07/11 05:26:30;;;;;;;25.02;16.13;;;;;;;;;;5031916;28;20101;-66
2021/07/11 05:28:57;;;;;;;17.75;14.52;;;;;;;;;;5031876;28;20466;-67
2021/07/11 05:31:23;;;;;;;20.17;15.48;;;;;;;;;;5032805;28;20087;-65
2021/07/11 05:33:49;;;;;;;15.65;13.95;;;;;;;;;;5032810;28;20100;-66
2021/07/11 05:36:15;;;;;;;17.80;14.45;;;;;;;;;;5032193;28;20053;-66
2021/07/11 05:38:42;;;;;;;24.15;13.93;;;;;;;;;;5033136;28;20053;-68
2021/07/11 05:41:09;;;;;;;20.20;13.30;;;;;;;;;;5033034;28;20033;-66
2021/07/11 05:43:35;;;;;;;15.32;12.95;;;;;;;;;;5033012;28;20045;-63
2021/07/11 05:46:01;;;;;;;19.73;11.70;;;;;;;;;;5033009;28;20021;-67
2021/07/11 05:48:28;;;;;;;14.85;11.88;;;;;;;;;;5033013;28;20025;-66
2021/07/11 05:50:54;;;;;;;17.33;11.50;;;;;;;;;;5032864;28;20037;-67
2021/07/11 05:53:20;;;;;;;14.82;11.30;;;;;;;;;;5032896;28;20057;-67
2021/07/11 05:55:47;;;;;;;13.70;11.15;;;;;;;;;;5032493;28;20470;-65
2021/07/11 05:58:13;;;;;;;18.45;11.00;;;;;;;;;;5032634;28;20393;-66
2021/07/11 06:00:39;;;;;;;18.75;10.10;;;;;;;;;;5031603;28;20030;-64
2021/07/11 06:03:06;;;;;;;18.33;10.20;;;;;;;;;;5034109;28;20371;-64
2021/07/11 06:05:32;;;;;;;12.13;10.00;;;;;;;;;;5036818;28;20033;-65
2021/07/11 06:07:58;;;;;;;13.15;10.52;;;;;;;;;;5036801;28;20117;-65
2021/07/11 06:10:24;;;;;;;11.57;8.85;;;;;;;;;;5036546;28;20088;-67
2021/07/11 06:12:50;;;;;;;22.23;10.07;;;;;;;;;;5036655;28;20037;-69
2021/07/11 06:15:17;;;;;;;14.35;10.52;;;;;;;;;;5036684;28;20338;-66
2021/07/11 06:17:43;;;;;;;18.90;9.95;;;;;;;;;;5036968;28;20110;-68
2021/07/11 06:20:11;;;;;;;17.38;9.95;;;;;;;;;;5035745;28;20478;-68
2021/07/11 06:22:37;;;;;;;16.13;10.00;;;;;;;;;;5035973;28;20025;-67
2021/07/11 06:25:07;;;;;;;12.32;9.73;;;;;;;;;;5035222;28;20029;-70
2021/07/11 06:27:37;;;;;;;20.45;9.52;;;;;;;;;;5036436;28;20105;-69
2021/07/11 06:30:09;;;;;;;13.75;9.27;;;;;;;;;;5036307;28;20073;-68
2021/07/11 06:32:35;;;;;;;14.35;9.00;;;;;;;;;;5036289;28;20021;-67
2021/07/11 06:35:02;;;;;;;12.60;8.88;;;;;;;;;;5034904;28;20124;-69
2021/07/11 06:37:28;;;;;;;20.92;9.23;;;;;;;;;;5036187;28;20026;-69
2021/07/11 06:39:54;;;;;;;11.85;8.73;;;;;;;;;;5034759;28;20029;-69
2021/07/11 06:42:20;;;;;;;11.93;8.13;;;;;;;;;;5036074;28;20021;-69
2021/07/11 06:44:46;;;;;;;11.45;8.13;;;;;;;;;;5035786;28;20105;-69
2021/07/11 06:47:13;;;;;;;14.88;7.88;;;;;;;;;;5032394;28;20394;-68
2021/07/11 06:49:39;;;;;;;8.15;6.95;;;;;;;;;;5035736;28;20034;-69
2021/07/11 06:55:09;;;;;;;12.05;6.70;;;;;;;;;;5036208;28;20465;-70
2021/07/11 06:57:38;;;;;;;8.35;6.45;;;;;;;;;;5035763;28;20025;-69
2021/07/11 07:00:05;;;;;;;13.77;6.13;;;;;;;;;;5035692;28;20083;-69
2021/07/11 07:02:31;;;;;;;9.55;5.50;;;;;;;;;;5035629;28;20064;-69
2021/07/11 07:04:57;;;;;;;14.10;6.47;;;;;;;;;;5034386;28;20021;-69
2021/07/11 07:07:23;;;;;;;8.90;6.28;;;;;;;;;;5034295;28;20108;-69
2021/07/11 07:09:49;;;;;;;9.80;6.20;;;;;;;;;;5034194;28;20519;-69
2021/07/11 07:12:16;;;;;;;12.60;5.13;;;;;;;;;;5035567;28;20026;-68
2021/07/11 07:14:42;;;;;;;12.18;5.45;;;;;;;;;;5034800;28;20018;-70
2021/07/11 07:17:08;;;;;;;10.75;5.85;;;;;;;;;;5034177;28;20096;-68
2021/07/11 07:19:34;;;;;;;10.98;6.28;;;;;;;;;;5035477;28;20399;-70
2021/07/11 07:22:01;;;;;;;21.08;5.35;;;;;;;;;;5034993;28;20108;-70
2021/07/11 07:24:27;;;;;;;6.57;4.90;;;;;;;;;;5035172;28;20025;-71
2021/07/11 07:26:53;;;;;;;7.50;5.00;;;;;;;;;;5035123;28;20097;-70
2021/07/11 07:29:19;;;;;;;7.53;4.97;;;;;;;;;;5035142;28;20096;-69
2021/07/11 07:31:47;;;;;;;10.02;4.95;;;;;;;;;;5034851;28;20037;-67
2021/07/11 07:34:14;;;;;;;16.77;4.57;;;;;;;;;;5034966;28;20029;-69
2021/07/11 07:36:40;;;;;;;10.38;4.68;;;;;;;;;;5034969;28;20362;-68
2021/07/11 07:39:06;;;;;;;11.10;5.18;;;;;;;;;;5035055;28;20072;-70
2021/07/11 07:41:33;;;;;;;12.38;5.18;;;;;;;;;;5035042;28;20504;-69
2021/07/11 07:43:59;;;;;;;5.25;4.72;;;;;;;;;;5035014;28;20021;-69
2021/07/11 07:46:25;;;;;;;6.30;4.78;;;;;;;;;;5034593;28;20095;-70
2021/07/11 07:48:51;;;;;;;7.65;4.93;;;;;;;;;;5033314;28;20032;-69
2021/07/11 07:51:18;;;;;;;8.60;4.75;;;;;;;;;;5034432;28;20038;-69
2021/07/11 07:53:44;;;;;;;9.93;5.53;;;;;;;;;;5034467;28;20029;-68
2021/07/11 07:56:11;;;;;;;6.30;4.13;;;;;;;;;;5034940;28;20094;-69
2021/07/11 07:58:37;;;;;;;12.55;5.05;;;;;;;;;;5034668;28;20029;-71
2021/07/11 08:01:03;;;;;;;11.40;4.68;;;;;;;;;;5034641;28;20034;-68
2021/07/11 08:03:30;;;;;;;7.40;4.57;;;;;;;;;;5034364;28;20029;-70
2021/07/11 08:05:56;;;;;;;12.18;4.93;;;;;;;;;;5034326;28;20022;-69
2021/07/11 08:08:22;;;;;;;8.52;4.45;;;;;;;;;;5034216;28;20101;-70
2021/07/11 08:10:48;;;;;;;8.25;4.40;;;;;;;;;;5033079;28;20036;-70
2021/07/11 08:13:14;;;;;;;8.88;5.05;;;;;;;;;;5034438;28;20057;-69
2021/07/11 08:15:41;;;;;;;8.32;4.50;;;;;;;;;;5034383;28;20017;-71
2021/07/11 08:18:07;;;;;;;6.55;4.32;;;;;;;;;;5034444;28;20048;-70
2021/07/11 08:20:33;;;;;;;10.73;4.25;;;;;;;;;;5034299;28;20389;-69
2021/07/11 08:22:59;;;;;;;5.38;4.40;;;;;;;;;;5032255;28;20482;-69
2021/07/11 08:25:26;;;;;;;5.95;4.32;;;;;;;;;;5035575;28;20025;-70
2021/07/11 08:27:52;;;;;;;8.50;4.13;;;;;;;;;;5034462;28;20369;-71
2021/07/11 08:30:18;;;;;;;6.03;4.05;;;;;;;;;;5034376;28;20040;-70
2021/07/11 08:32:45;;;;;;;11.43;4.38;;;;;;;;;;5034119;28;20041;-72
2021/07/11 08:35:11;;;;;;;11.50;4.82;;;;;;;;;;5032774;28;20390;-71
2021/07/11 08:37:38;;;;;;;6.43;4.18;;;;;;;;;;5033925;28;20032;-69
2021/07/11 08:40:07;;;;;;;8.68;4.55;;;;;;;;;;5032656;28;20040;-70
2021/07/11 08:42:34;;;;;;;7.38;3.80;;;;;;;;;;5033710;28;20017;-70
2021/07/11 08:45:00;;;;;;;7.70;4.28;;;;;;;;;;5033856;28;20030;-70
2021/07/11 08:47:26;;;;;;;6.00;3.80;;;;;;;;;;5031802;28;20489;-70
2021/07/11 08:49:53;;;;;;;8.82;3.85;;;;;;;;;;5033771;28;20044;-70
2021/07/11 08:52:19;;;;;;;12.00;4.20;;;;;;;;;;5033994;28;20108;-69
2021/07/11 08:54:46;;;;;;;7.57;3.25;;;;;;;;;;5034031;28;20480;-71
2021/07/11 08:57:12;;;;;;;8.38;3.40;;;;;;;;;;5033687;28;20022;-71
2021/07/11 08:59:39;;;;;;;8.73;3.70;;;;;;;;;;5033450;28;20029;-70
2021/07/11 09:02:06;;;;;;;6.60;3.88;;;;;;;;;;5033551;28;20377;-71
2021/07/11 09:05:01;;;;;;;6.72;3.70;;;;;;;;;;5033546;28;20462;-70
2021/07/11 09:07:29;;;;;;;7.57;4.00;;;;;;;;;;4991654;28;20042;-70
2021/07/11 09:09:57;;;;;;;5.78;3.60;;;;;;;;;;4991474;28;20035;-70
2021/07/11 09:12:24;;;;;;;7.53;3.97;;;;;;;;;;4991591;28;20038;-70
2021/07/11 09:14:51;;;;;;;6.60;3.72;;;;;;;;;;4991807;28;20066;-70
2021/07/11 09:17:17;;;;;;;6.18;3.80;;;;;;;;;;4990744;28;20065;-70
2021/07/11 09:19:48;;;;;;;4.20;3.25;;;;;;;;;;4989960;28;20034;-71
2021/07/11 09:22:18;;;;;;;8.18;3.70;;;;;;;;;;4974509;28;20030;-71
2021/07/11 09:24:51;;;;;;;13.07;3.95;;;;;;;;;;4991413;28;20042;-71
2021/07/11 09:27:19;;;;;;;6.75;3.25;;;;;;;;;;4990505;28;20432;-71
2021/07/11 09:29:46;;;;;;;4.72;3.00;;;;;;;;;;4992371;28;20038;-72
2021/07/11 09:32:41;;;;;;;10.48;4.15;;;;;;;;;;5009982;28;20022;-70
2021/07/11 09:35:24;;;;;;;8.52;3.03;;;;;;;;;;4936156;29;20035;-72
2021/07/11 09:37:53;;;;;;;4.78;3.20;;;;;;;;;;4951457;29;20035;-72
2021/07/11 09:40:20;;;;;;;5.20;3.53;;;;;;;;;;4951103;29;20086;-72
2021/07/11 09:42:48;;;;;;;5.53;3.10;;;;;;;;;;4938394;28;20027;-71
2021/07/11 09:45:21;;;;;;;5.88;2.60;;;;;;;;;;4990978;28;20049;-73
2021/07/11 09:47:48;;;;;;;4.20;3.00;;;;;;;;;;4990982;28;20616;-73
2021/07/11 09:50:20;;;;;;;4.38;3.00;;;;;;;;;;4991129;28;20104;-71
2021/07/11 09:52:47;;;;;;;9.90;3.60;;;;;;;;;;4991101;28;20034;-72
2021/07/11 09:55:19;;;;;;;5.80;2.83;;;;;;;;;;4974832;28;20129;-66
2021/07/11 09:57:49;;;;;;;4.43;3.17;;;;;;;;;;4991132;28;20035;-66
2021/07/11 10:00:17;;;;;;;5.00;2.83;;;;;;;;;;4990957;28;20113;-65
2021/07/11 10:02:44;;;;;;;5.75;2.70;;;;;;;;;;4991098;28;20113;-67
2021/07/11 10:05:12;;;;;;;6.32;2.97;;;;;;;;;;4991035;28;20151;-68
2021/07/11 10:07:38;;;;;;;4.65;3.17;;;;;;;;;;4990976;28;20053;-70
2021/07/11 10:10:06;;;;;;;3.90;2.95;;;;;;;;;;4991259;28;20092;-68
2021/07/11 10:12:32;;;;;;;5.07;2.88;;;;;;;;;;5047855;28;20036;-69
2021/07/11 10:14:58;;;;;;;9.38;3.17;;;;;;;;;;5050863;28;20025;-68
2021/07/11 10:17:26;;;;;;;3.78;2.53;;;;;;;;;;5052456;28;20104;-68
2021/07/11 10:19:54;;;;;;;4.85;2.80;;;;;;;;;;5038434;28;20021;-69
2021/07/11 10:22:20;;;;;;;6.80;3.08;;;;;;;;;;5032700;28;20014;-70
2021/07/11 10:24:48;;;;;;;4.93;2.60;;;;;;;;;;5032606;28;20065;-66
2021/07/11 10:27:19;;;;;;;3.60;3.00;;;;;;;;;;5031318;28;20025;-70
2021/07/11 10:29:45;;;;;;;5.28;2.50;;;;;;;;;;5032827;28;20096;-67
2021/07/11 10:32:21;;;;;;;6.90;2.72;;;;;;;;;;5031218;28;20472;-67
2021/07/11 10:34:47;;;;;;;7.40;2.63;;;;;;;;;;5031304;28;20030;-67
2021/07/11 10:37:13;;;;;;;8.40;3.58;;;;;;;;;;5032711;28;20065;-69
2021/07/11 10:39:39;;;;;;;9.80;3.35;;;;;;;;;;5032422;28;20018;-67
2021/07/11 10:42:08;;;;;;;7.50;2.67;;;;;;;;;;5052098;28;20021;-69
2021/07/11 10:44:34;;;;;;;6.38;2.63;;;;;;;;;;5052258;28;20101;-68
2021/07/11 10:47:02;;;;;;;7.93;2.70;;;;;;;;;;5052324;28;20052;-69
2021/07/11 10:49:30;;;;;;;11.90;3.00;;;;;;;;;;5051022;28;20033;-68
2021/07/11 10:51:57;;;;;;;7.05;2.50;;;37.80;51.10;;;;;;5054511;28;20355;-68
2021/07/11 10:54:33;;;;;;;7.22;2.95;;;37.90;52.00;;;;;;5054571;28;20029;-68
2021/07/11 10:57:01;;;;;;;11.38;3.22;;;38.60;48.90;;;;;;5055888;28;20116;-67
2021/07/11 10:59:28;;;;;;;16.75;4.40;;;;;;;;;;5055573;28;20096;-67
2021/07/11 11:01:54;;;;;;;6.43;3.10;;;;;;;;;;5055772;28;20099;-67
2021/07/11 11:04:21;;;;;;;8.68;3.05;;;;;;;;;;5055352;28;20143;-70
2021/07/11 11:06:47;;;;;;;14.57;3.17;;;;;;;;;;5055592;28;20017;-68
2021/07/11 11:09:23;;;;;;;5.50;3.03;;;;;;;;;;5055901;28;20020;-70
2021/07/11 11:11:49;;;;;;;7.20;3.03;;;;;;;;;;5055489;28;20495;-69
2021/07/11 11:14:16;;;;;;;8.63;3.72;;;;;;;;;;5055236;28;20439;-69
2021/07/11 11:16:47;;;;;;;8.52;2.80;;;;;;;;;;5054890;28;20078;-70
2021/07/11 11:19:14;;;;;;;7.97;2.92;;;;;;;;;;5055510;28;20458;-70
2021/07/11 11:21:40;;;;;;;6.60;3.15;;;;;;;;;;5055370;28;20024;-68
2021/07/11 11:24:06;;;;;;;7.90;2.90;;;;;;;;;;5055319;28;20040;-68
2021/07/11 11:26:33;;;;;;;5.22;2.35;;;;;;;;;;5053851;28;20020;-69
2021/07/11 11:29:00;;;;;;;6.95;2.78;;;;;;;;;;5055398;28;20358;-70
2021/07/11 11:31:28;;;;;;;10.52;3.70;;;;;;;;;;5055141;28;20119;-70
2021/07/11 11:34:01;;;;;;;4.40;2.85;;;;;;;;;;5055455;28;20028;-69
2021/07/11 11:36:36;;;;;;;3.00;2.38;;;;;;;;;;5054786;28;20017;-69
2021/07/11 11:39:05;;;;;;;6.43;2.88;;;;;;;;;;5055066;28;20040;-68
2021/07/11 11:41:32;;;;;;;5.57;2.63;;;;;;;;;;5055057;28;20051;-69
2021/07/11 11:44:05;;;;;;;5.82;2.72;;;;;;;;;;5053684;28;20028;-70
2021/07/11 11:46:32;;;;;;;5.60;2.97;;;;;;;;;;5053142;28;20489;-68
2021/07/11 11:48:59;;;;;;;5.70;2.95;;;;;;;;;;5054813;28;20097;-70
2021/07/11 11:51:26;;;;;;;6.70;2.97;;;;;;;;;;5054725;28;20040;-69
2021/07/11 11:53:52;;;;;;;8.60;3.42;;;;;;;;;;5054812;28;20025;-69
2021/07/11 11:56:18;;;;;;;10.85;2.65;;;;;;;;;;5054712;28;20032;-68
2021/07/11 11:58:45;;;;;;;6.82;2.90;;;;;;;;;;5054795;28;20029;-69
2021/07/11 12:01:13;;;;;;;9.90;2.53;;;;;;;;;;5052952;28;20027;-69
2021/07/11 12:03:40;;;;;;;7.00;2.60;;;;;;;;;;5054671;28;20021;-69
2021/07/11 12:06:08;;;;;;;5.85;2.97;;;;;;;;;;5054553;28;20027;-70
2021/07/11 12:08:36;;;;;;;6.95;2.22;;;;;;;;;;5054412;28;20469;-68
2021/07/11 12:11:02;;;;;;;6.53;2.60;;;;;;;;;;5056099;28;20087;-68
2021/07/11 12:13:29;;;;;;;4.95;2.63;;;;;;;;;;5055560;28;20079;-69
2021/07/11 12:16:02;;;;;;;8.45;3.20;;;;;;;;;;5054732;28;20461;-68
2021/07/11 12:18:29;;;;;;;5.32;2.15;;;;;;;;;;5054390;28;20064;-64
2021/07/11 12:20:55;;;;;;;4.93;2.47;;;;;;;;;;5054315;28;20067;-66
2021/07/11 12:23:23;;;;;;;5.50;2.83;;;;;;;;;;5054252;28;20032;-66
2021/07/11 12:26:00;;;;;;;3.92;2.63;;;;;;;;;;5054221;28;20060;-65
2021/07/11 12:28:26;;;;;;;4.40;2.75;;;;;;;;;;5049754;28;20025;-66
2021/07/11 12:30:54;;;;;;;8.77;2.75;;;;;;;;;;5034503;28;20041;-68
2021/07/11 12:33:28;;;;;;;3.67;2.33;;;;;;;;;;5034095;28;20028;-67
2021/07/11 12:35:58;;;;;;;6.38;2.25;;;;;;;;;;5034259;28;20022;-68
2021/07/11 12:38:34;;;;;;;6.75;2.72;;;;;;;;;;5034145;28;20022;-66
2021/07/11 12:41:02;;;;;;;7.15;2.58;;;;;;;;;;5033998;28;20022;-68
2021/07/11 12:43:31;;;;;;;11.52;3.30;;;;;;;;;;5033881;28;20025;-67
2021/07/11 12:45:58;;;;;;;9.90;2.92;;;;;;;;;;5032178;28;20112;-68
2021/07/11 12:48:35;;;;;;;5.13;2.90;;;;;;;;;;5033247;28;20043;-68
2021/07/11 12:51:11;;;;;;;4.15;2.55;;;;;;;;;;5033559;28;20033;-67
2021/07/11 12:53:37;;;;;;;5.63;2.95;;;;;;;;;;5032288;28;20025;-68
2021/07/11 12:56:05;;;;;;;6.90;2.50;;;;;;;;;;5033691;28;20466;-68
2021/07/11 12:58:42;;;;;;;4.10;2.88;;;;;;;;;;5033923;28;20033;-66
2021/07/11 13:01:08;;;;;;;5.90;2.60;;;;;;;;;;5033653;28;20029;-67
2021/07/11 13:03:34;;;;;;;6.47;2.30;;;;;;;;;;5032244;28;20104;-68
2021/07/11 13:06:01;;;;;;;6.35;2.60;;;;;;;;;;5033528;28;20088;-68
2021/07/11 13:08:28;;;;;;;5.57;2.50;;;;;;;;;;5033172;28;20488;-65
2021/07/11 13:10:54;;;;;;;6.22;3.20;;;;;;;;;;5033429;28;20033;-67
2021/07/11 13:13:21;;;;;;;4.57;2.60;;;;;;;;;;5032475;28;20104;-67
2021/07/11 13:15:48;;;;;;;7.22;2.60;;;;;;;;;;5033334;28;20021;-66
2021/07/11 13:18:14;;;;;;;8.13;2.50;;;;;;;;;;5033342;28;20089;-69
2021/07/11 13:20:44;;;;;;;5.80;2.60;;;;;;;;;;5031974;28;20025;-68
2021/07/11 13:23:11;;;;;;;4.65;2.25;;;;;;;;;;5033318;28;20370;-68
2021/07/11 13:25:37;;;;;;;3.33;2.45;;;;;;;;;;5033215;28;20029;-68
2021/07/11 13:28:04;;;;;;;6.22;2.45;;;;;;;;;;5032895;28;20425;-67
2021/07/11 13:30:32;;;;;;;8.43;2.70;;;;;;;;;;5033186;28;20030;-68
2021/07/11 13:32:59;;;;;;;3.90;2.75;;;;;;;;;;5033195;28;20022;-68
2021/07/11 13:35:25;;;;;;;12.68;2.70;;;;;;;;;;5032873;28;20108;-68
2021/07/11 13:37:52;;;;;;;6.90;2.80;;;;;;;;;;5033072;28;20033;-69
2021/07/11 13:40:19;;;;;;;7.97;2.85;;;;;;;;;;5031866;28;20037;-68
2021/07/11 13:42:46;;;;;;;4.20;2.35;;;;;;;;;;5032148;28;20497;-67
2021/07/11 13:45:13;;;;;;;5.85;2.65;;;;;;;;;;5028927;28;20100;-68
2021/07/11 13:47:39;;;;;;;5.53;2.95;;;;;;;;;;5031165;28;20045;-68
2021/07/11 13:50:07;;;;;;;5.55;3.00;;;;;;;;;;5031075;28;20025;-68
2021/07/11 13:52:34;;;;;;;4.85;2.30;;;;;;;;;;5032794;28;20017;-67
2021/07/11 13:55:00;;;;;;;8.25;2.70;;;;;;;;;;5032717;28;20550;-70
2021/07/11 13:57:26;;;;;;;5.60;3.10;;;;;;;;;;5032890;28;20048;-68
2021/07/11 13:59:53;;;;;;;2.83;2.42;;;;;;;;;;5032574;28;20417;-68
2021/07/11 14:02:25;;;;;;;3.22;2.30;;;;;;;;;;5032354;28;20084;-67
2021/07/11 14:04:52;;;;;;;4.40;2.50;;;;;;;;;;5032985;28;20454;-68
2021/07/11 14:07:18;;;;;;;3.33;2.60;;;;;;;;;;5032896;28;20018;-69
2021/07/11 14:09:46;;;;;;;3.58;2.50;;;;;;;;;;5032821;28;20036;-67
2021/07/11 14:12:13;;;;;;;6.40;2.55;;;;;;;;;;5031522;28;20049;-65
2021/07/11 14:14:39;;;;;;;4.55;2.47;;;;;;;;;;5031503;28;20378;-66
2021/07/11 14:17:06;;;;;;;4.95;2.83;;;;;;;;;;5031500;28;20038;-67
2021/07/11 14:19:32;;;;;;;6.38;2.47;;;;;;;;;;5031327;28;20018;-66
2021/07/11 14:21:59;;;;;;;3.08;2.67;;;;;;;;;;5032538;28;20034;-68
2021/07/11 14:24:25;;;;;;;3.28;2.15;;;;;;;;;;5034303;28;20033;-67
2021/07/11 14:26:52;;;;;;;4.07;2.28;;;;;;;;;;5036539;28;20033;-67
2021/07/11 14:29:18;;;;;;;4.15;2.63;;;;;;;;;;5036467;28;20018;-68
2021/07/11 14:31:45;;;;;;;3.28;2.53;;;;;;;;;;5036373;28;20042;-68
2021/07/11 14:34:11;;;;;;;2.95;2.75;;;;;;;;;;5034841;28;20120;-68
2021/07/11 14:36:37;;;;;;;6.20;2.72;;;;;;;;;;5036154;28;20123;-69